createdAt,value
2023-12-16T00:01:12.695Z,90.48
2023-12-16T00:06:06.086Z,90.22
2023-12-16T00:11:00.591Z,90.15
2023-12-16T00:15:54.041Z,89.59
2023-12-16T00:20:49.079Z,89.43
2023-12-16T00:25:42.131Z,89.55
2023-12-16T00:30:35.206Z,89.46
2023-12-16T00:35:28.365Z,89.61
2023-12-16T00:40:22.800Z,89.33
2023-12-16T00:45:18.033Z,88.79
2023-12-16T00:50:12.436Z,89.05
2023-12-16T00:55:05.644Z,88.90
2023-12-16T01:00:00.165Z,89.07
2023-12-16T01:04:53.614Z,88.85
2023-12-16T01:09:46.782Z,88.60
2023-12-16T01:14:39.991Z,88.50
2023-12-16T01:19:34.427Z,88.63
2023-12-16T01:24:27.514Z,88.54
2023-12-16T01:29:20.438Z,89.09
2023-12-16T01:34:13.615Z,89.25
2023-12-16T01:39:08.058Z,89.44
2023-12-16T01:44:01.112Z,89.56
2023-12-16T01:48:54.253Z,89.71
2023-12-16T01:53:48.197Z,89.98
2023-12-16T01:58:43.651Z,90.20
2023-12-16T02:03:39.933Z,90.22
2023-12-16T02:08:32.815Z,90.89
2023-12-16T02:13:25.964Z,91.21
2023-12-16T02:18:20.560Z,91.31
2023-12-16T02:23:16.556Z,91.79
2023-12-16T02:28:09.611Z,91.95
2023-12-16T02:33:02.651Z,92.11
2023-12-16T02:37:55.626Z,92.54
2023-12-16T02:42:49.977Z,92.67
2023-12-16T02:47:44.196Z,92.86
2023-12-16T02:52:37.173Z,93.16
2023-12-16T02:57:30.082Z,93.44
2023-12-16T03:02:26.990Z,93.35
2023-12-16T03:07:19.982Z,93.74
2023-12-16T03:12:13.005Z,93.61
2023-12-16T03:17:06.220Z,93.49
2023-12-16T03:22:00.517Z,93.40
2023-12-16T03:26:53.482Z,93.29
2023-12-16T03:31:46.387Z,93.20
2023-12-16T03:36:39.349Z,93.14
2023-12-16T03:41:35.288Z,92.98
2023-12-16T03:46:28.373Z,93.29
2023-12-16T03:51:25.364Z,92.86
2023-12-16T03:56:18.393Z,92.89
2023-12-16T04:01:15.079Z,92.84
2023-12-16T04:06:11.770Z,93.10
2023-12-16T04:11:04.767Z,93.23
2023-12-16T04:15:57.730Z,92.75
2023-12-16T04:20:51.984Z,92.71
2023-12-16T04:25:44.906Z,92.47
2023-12-16T04:30:37.941Z,92.41
2023-12-16T04:35:30.910Z,92.42
2023-12-16T04:40:25.275Z,92.01
2023-12-16T04:45:18.230Z,91.99
2023-12-16T04:50:11.816Z,91.90
2023-12-16T04:55:05.250Z,91.99
2023-12-16T05:00:15.838Z,91.82
2023-12-16T05:05:12.597Z,91.90
2023-12-16T05:10:11.260Z,92.16
2023-12-16T05:15:04.875Z,92.13
2023-12-16T05:19:57.918Z,92.15
2023-12-16T05:24:57.949Z,92.14
2023-12-16T05:29:51.216Z,91.85
2023-12-16T05:34:44.248Z,92.18
2023-12-16T05:39:37.186Z,92.01
2023-12-16T05:44:31.639Z,92.15
2023-12-16T05:49:24.639Z,91.90
2023-12-16T05:54:17.596Z,91.62
2023-12-16T05:59:10.603Z,91.11
2023-12-16T06:04:05.071Z,90.71
2023-12-16T06:08:57.954Z,90.85
2023-12-16T06:13:52.758Z,90.75
2023-12-16T06:18:45.969Z,90.70
2023-12-16T06:23:40.561Z,90.33
2023-12-16T06:28:33.580Z,89.73
2023-12-16T06:33:26.676Z,88.92
2023-12-16T06:38:21.611Z,88.22
2023-12-16T06:43:16.235Z,87.49
2023-12-16T06:48:11.207Z,86.44
2023-12-16T06:53:04.208Z,86.45
2023-12-16T06:57:57.172Z,85.50
2023-12-16T07:02:51.604Z,84.63
2023-12-16T07:07:44.985Z,84.59
2023-12-16T07:12:37.979Z,84.32
2023-12-16T07:17:31.225Z,84.09
2023-12-16T07:22:30.321Z,84.00
2023-12-16T07:27:24.159Z,83.31
2023-12-16T07:32:17.153Z,83.06
2023-12-16T07:37:12.754Z,83.21
2023-12-16T07:42:07.451Z,82.82
2023-12-16T07:47:01.552Z,82.85
2023-12-16T07:51:56.063Z,81.51
2023-12-16T07:56:48.984Z,81.20
2023-12-16T08:01:43.531Z,80.70
2023-12-16T08:06:36.557Z,79.25
2023-12-16T08:11:29.606Z,77.62
2023-12-16T08:16:22.706Z,76.57
2023-12-16T08:21:27.567Z,77.12
2023-12-16T08:26:23.133Z,76.13
2023-12-16T08:31:18.487Z,76.30
2023-12-16T08:36:14.450Z,76.01
2023-12-16T08:41:16.923Z,76.27
2023-12-16T08:46:09.945Z,76.08
2023-12-16T08:51:03.124Z,76.24
2023-12-16T08:55:56.190Z,75.08
2023-12-16T09:00:50.707Z,74.81
2023-12-16T09:05:44.043Z,74.57
2023-12-16T09:10:37.336Z,74.14
2023-12-16T09:15:30.383Z,73.74
2023-12-16T09:20:24.726Z,73.75
2023-12-16T09:25:17.966Z,74.12
2023-12-16T09:30:11.733Z,73.85
2023-12-16T09:35:04.936Z,72.91
2023-12-16T09:39:59.377Z,72.48
2023-12-16T09:44:55.640Z,72.49
2023-12-16T09:49:50.793Z,72.23
2023-12-16T09:54:43.797Z,73.04
2023-12-16T09:59:40.230Z,73.94
2023-12-16T10:04:34.318Z,74.21
2023-12-16T10:09:27.412Z,74.07
2023-12-16T10:14:21.482Z,74.71
2023-12-16T10:19:15.970Z,74.63
2023-12-16T10:24:12.749Z,73.85
2023-12-16T10:29:05.944Z,73.54
2023-12-16T10:34:04.384Z,72.44
2023-12-16T10:38:59.006Z,72.98
2023-12-16T10:43:54.305Z,73.19
2023-12-16T10:48:49.477Z,73.23
2023-12-16T10:53:45.546Z,73.58
2023-12-16T10:58:44.939Z,73.76
2023-12-16T11:03:44.452Z,74.00
2023-12-16T11:08:38.103Z,74.68
2023-12-16T11:13:31.532Z,74.46
2023-12-16T11:18:28.110Z,75.25
2023-12-16T11:23:21.664Z,75.16
2023-12-16T11:28:15.789Z,75.10
2023-12-16T11:33:09.118Z,74.80
2023-12-16T11:38:06.157Z,75.07
2023-12-16T11:43:04.185Z,75.28
2023-12-16T11:47:57.715Z,75.91
2023-12-16T11:52:52.837Z,75.57
2023-12-16T11:57:56.508Z,75.33
2023-12-16T12:02:52.450Z,74.64
2023-12-16T12:07:45.610Z,75.60
2023-12-16T12:12:39.248Z,75.51
2023-12-16T12:17:34.029Z,75.23
2023-12-16T12:22:27.411Z,74.22
2023-12-16T12:27:20.571Z,73.52
2023-12-16T12:32:15.860Z,74.11
2023-12-16T12:37:10.301Z,72.84
2023-12-16T12:42:04.314Z,72.57
2023-12-16T12:46:57.471Z,72.96
2023-12-16T12:51:51.088Z,72.65
2023-12-16T12:56:46.808Z,72.82
2023-12-16T13:01:40.300Z,72.27
2023-12-16T13:06:43.156Z,72.44
2023-12-16T13:11:39.276Z,71.52
2023-12-16T13:16:36.971Z,72.02
2023-12-16T13:21:30.076Z,72.61
2023-12-16T13:26:23.029Z,72.21
2023-12-16T13:31:16.080Z,72.41
2023-12-16T13:36:33.037Z,72.38
2023-12-16T13:41:24.526Z,72.71
2023-12-16T13:46:17.455Z,73.15
2023-12-16T13:51:11.907Z,73.13
2023-12-16T13:56:05.350Z,72.80
2023-12-16T14:00:59.472Z,71.59
2023-12-16T14:05:52.698Z,71.63
2023-12-16T14:10:48.885Z,71.41
2023-12-16T14:15:41.901Z,71.81
2023-12-16T14:20:35.223Z,71.83
2023-12-16T14:25:28.362Z,72.13
2023-12-16T14:30:24.700Z,72.48
2023-12-16T14:35:18.001Z,72.50
2023-12-16T14:40:11.702Z,72.24
2023-12-16T14:45:05.252Z,72.39
2023-12-16T14:50:00.096Z,73.63
2023-12-16T14:54:53.352Z,74.22
2023-12-16T14:59:46.587Z,75.76
2023-12-16T15:04:42.248Z,76.69
2023-12-16T15:09:37.972Z,76.58
2023-12-16T15:14:31.443Z,76.91
2023-12-16T15:19:30.002Z,76.86
2023-12-16T15:24:23.655Z,77.37
2023-12-16T15:29:18.727Z,77.31
2023-12-16T15:34:13.868Z,77.42
2023-12-16T15:39:15.728Z,77.38
2023-12-16T15:44:10.217Z,77.51
2023-12-16T15:49:19.229Z,76.73
2023-12-16T15:54:15.400Z,77.96
2023-12-16T15:59:11.718Z,78.48
2023-12-16T16:04:06.425Z,78.87
2023-12-16T16:09:02.168Z,78.69
2023-12-16T16:13:58.782Z,79.52
2023-12-16T16:18:52.256Z,79.89
2023-12-16T16:23:45.508Z,79.13
2023-12-16T16:28:40.141Z,79.17
2023-12-16T16:33:33.424Z,79.95
2023-12-16T16:38:26.817Z,79.42
2023-12-16T16:43:19.770Z,79.55
2023-12-16T16:48:14.364Z,79.86
2023-12-16T16:53:07.477Z,81.01
2023-12-16T16:58:00.481Z,81.86
2023-12-16T17:03:02.273Z,82.34
2023-12-16T17:08:05.793Z,82.61
2023-12-16T17:13:20.862Z,83.18
2023-12-16T17:18:15.532Z,83.64
2023-12-16T17:23:12.612Z,83.94
2023-12-16T17:28:05.753Z,83.96
2023-12-16T17:32:58.773Z,84.35
2023-12-16T17:37:52.618Z,84.45
2023-12-16T17:42:46.944Z,84.79
2023-12-16T17:47:40.178Z,84.86
2023-12-16T17:52:33.424Z,85.02
2023-12-16T17:57:26.806Z,85.57
2023-12-16T18:02:21.435Z,85.68
2023-12-16T18:07:14.477Z,85.81
2023-12-16T18:12:07.881Z,86.27
2023-12-16T18:17:00.809Z,86.38
2023-12-16T18:21:55.649Z,86.97
2023-12-16T18:26:48.965Z,87.02
2023-12-16T18:31:42.106Z,87.11
2023-12-16T18:36:37.224Z,87.91
2023-12-16T18:41:31.761Z,87.61
2023-12-16T18:46:30.603Z,87.21
2023-12-16T18:51:24.576Z,86.21
2023-12-16T18:56:18.008Z,85.75
2023-12-16T19:01:14.057Z,85.67
2023-12-16T19:06:10.625Z,85.34
2023-12-16T19:11:03.642Z,85.46
2023-12-16T19:15:56.902Z,85.91
2023-12-16T19:20:53.736Z,85.79
2023-12-16T19:25:46.804Z,85.97
2023-12-16T19:30:39.855Z,86.18
2023-12-16T19:35:32.843Z,86.59
2023-12-16T19:40:29.670Z,86.90
2023-12-16T19:45:22.761Z,86.83
2023-12-16T19:50:17.769Z,87.19
2023-12-16T19:55:11.196Z,87.52
2023-12-16T20:00:06.089Z,87.81
2023-12-16T20:05:05.945Z,87.77
2023-12-16T20:09:59.118Z,87.61
2023-12-16T20:14:52.363Z,88.08
2023-12-16T20:19:48.083Z,88.06
2023-12-16T20:24:41.166Z,87.72
2023-12-16T20:29:34.282Z,88.05
2023-12-16T20:34:27.372Z,87.85
2023-12-16T20:39:39.289Z,87.18
2023-12-16T20:44:32.364Z,86.46
2023-12-16T20:49:25.456Z,85.87
2023-12-16T20:54:18.573Z,85.49
2023-12-16T20:59:15.984Z,85.19
2023-12-16T21:04:10.321Z,84.87
2023-12-16T21:09:05.699Z,84.92
2023-12-16T21:13:58.778Z,85.09
2023-12-16T21:18:53.339Z,85.51
2023-12-16T21:23:50.030Z,86.31
2023-12-16T21:28:43.039Z,86.98
2023-12-16T21:33:50.882Z,87.52
2023-12-16T21:38:45.475Z,88.12
2023-12-16T21:43:38.415Z,88.04
2023-12-16T21:48:35.807Z,88.41
2023-12-16T21:53:28.861Z,88.63
2023-12-16T21:58:25.924Z,88.99
2023-12-16T22:03:19.102Z,88.65
2023-12-16T22:08:12.063Z,88.85
2023-12-16T22:13:05.356Z,89.10
2023-12-16T22:17:59.796Z,89.11
2023-12-16T22:22:52.988Z,89.15
2023-12-16T22:27:47.475Z,88.94
2023-12-16T22:32:41.333Z,88.81
2023-12-16T22:37:35.932Z,88.33
2023-12-16T22:42:28.941Z,88.06
2023-12-16T22:47:22.099Z,87.62
2023-12-16T22:52:15.410Z,87.76
2023-12-16T22:57:12.884Z,87.95
2023-12-16T23:02:05.954Z,87.83
2023-12-16T23:06:58.855Z,87.60
2023-12-16T23:11:51.860Z,87.57
2023-12-16T23:16:46.218Z,87.70
2023-12-16T23:21:45.365Z,87.97
2023-12-16T23:26:38.386Z,88.42
2023-12-16T23:31:31.410Z,88.52
2023-12-16T23:36:25.786Z,88.79
2023-12-16T23:41:19.518Z,88.86
2023-12-16T23:46:13.551Z,89.07
2023-12-16T23:51:06.737Z,89.21
2023-12-16T23:56:01.080Z,89.73
